Time;durP1;ratioP1;P1;durP2;ratioP2;P2;SDS_P1;SDS_P2;PMS_P1;PMS_P2;Temp;Humidity;BMP_temperature;BMP_pressure;BME280_temperature;BME280_humidity;BME280_pressure;Samples;Min_cycle;Max_cycle;Signal;HPM_P1;HPM_P2
2023/06/01 00:02:13;;;;;;;28.40;26.20;;;;;;;;;;5054887;28;20445;-85
2023/06/01 00:04:41;;;;;;;29.43;26.90;;;;;;;;;;5055795;28;20937;-84
2023/06/01 00:07:08;;;;;;;30.43;27.80;;;;;;;;;;5054774;28;20431;-85
2023/06/01 00:09:35;;;;;;;28.73;26.53;;;;;;;;;;5056282;28;20466;-85
2023/06/01 00:12:02;;;;;;;28.87;26.40;;;;;;;;;;5058531;28;20471;-85
2023/06/01 00:14:30;;;;;;;29.53;27.00;;;;;;;;;;5058406;28;20443;-85
2023/06/01 00:16:57;;;;;;;30.07;27.70;;;;;;;;;;5057952;28;20533;-85
2023/06/01 00:19:25;;;;;;;28.30;26.13;;;;;;;;;;5058040;28;20996;-86
2023/06/01 00:21:55;;;;;;;30.40;27.90;;;;;;;;;;5057797;28;21003;-85
2023/06/01 00:24:22;;;;;;;29.83;27.10;;;;;;;;;;5057504;28;20458;-86
2023/06/01 00:26:49;;;;;;;30.37;27.77;;;;;;;;;;5056764;28;20447;-85
2023/06/01 00:29:16;;;;;;;29.43;27.00;;;;;;;;;;5057685;28;20777;-84
2023/06/01 00:31:44;;;;;;;30.73;27.83;;;;;;;;;;5057300;28;20477;-85
2023/06/01 00:34:11;;;;;;;30.10;27.50;;;;;;;;;;5056977;28;20873;-86
2023/06/01 00:36:38;;;;;;;31.27;28.10;;;;;;;;;;5056497;28;20473;-85
2023/06/01 00:39:07;;;;;;;31.87;29.07;;;;;;;;;;5056987;28;20461;-84
2023/06/01 00:41:34;;;;;;;30.20;27.60;;;;;;;;;;5056743;28;20431;-85
2023/06/01 00:44:02;;;;;;;31.07;28.27;;;;;;;;;;5056274;28;20521;-84
2023/06/01 00:46:30;;;;;;;29.53;27.13;;;;;;;;;;5055432;28;20473;-84
2023/06/01 00:48:58;;;;;;;29.70;27.30;;;;;;;;;;5055769;28;20931;-84
2023/06/01 00:51:25;;;;;;;29.13;26.63;;;;;;;;;;5055506;28;20496;-83
2023/06/01 00:53:52;;;;;;;29.37;26.87;;;;;;;;;;5055631;28;20813;-85
2023/06/01 00:56:21;;;;;;;29.50;27.00;;;;;;;;;;5055447;28;20421;-85
2023/06/01 00:58:49;;;;;;;30.97;27.93;;;;;;;;;;5055085;28;20982;-84
2023/06/01 01:01:19;;;;;;;30.07;27.07;;;;;;;;;;5054630;28;20482;-85
2023/06/01 01:03:49;;;;;;;29.20;26.63;;;;;;;;;;5055642;28;20410;-85
2023/06/01 01:06:25;;;;;;;31.03;28.53;;;;;;;;;;5055221;28;20414;-84
2023/06/01 01:08:57;;;;;;;29.10;26.90;;;;;;;;;;5055495;28;20405;-84
2023/06/01 01:11:29;;;;;;;31.43;28.70;;;;;;;;;;5053991;28;20482;-84
2023/06/01 01:14:00;;;;;;;28.83;26.43;;;;;;;;;;5055281;28;20420;-84
2023/06/01 01:16:29;;;;;;;30.17;27.43;;;;;;;;;;5054781;28;20527;-85
2023/06/01 01:18:59;;;;;;;28.27;26.10;;;;;;;;;;5055220;28;20574;-85
2023/06/01 01:21:31;;;;;;;29.73;27.03;;;;;;;;;;5058241;28;21008;-84
2023/06/01 01:24:09;;;;;;;28.80;26.40;;;;;;;;;;5058668;28;20920;-85
2023/06/01 01:26:43;;;;;;;29.20;27.00;;;;;;;;;;5058700;28;20848;-84
2023/06/01 01:29:13;;;;;;;29.57;26.97;;;;;;;;;;5058964;28;20422;-84
2023/06/01 01:31:41;;;;;;;30.53;27.63;;;;;;;;;;5058376;28;20454;-84
2023/06/01 01:34:09;;;;;;;29.00;26.60;;;;;;;;;;5058689;28;20439;-84
2023/06/01 01:36:36;;;;;;;28.33;26.23;;;;;;;;;;5058045;28;20414;-84
2023/06/01 01:39:03;;;;;;;30.00;27.50;;;;;;;;;;5058336;28;20488;-85
2023/06/01 01:41:30;;;;;;;28.67;26.37;;;;;;;;;;5057454;28;20441;-84
2023/06/01 01:43:58;;;;;;;29.50;27.10;;;;;;;;;;5057931;28;20496;-85
2023/06/01 01:46:27;;;;;;;30.23;27.63;;;;;;;;;;5057525;28;20429;-84
2023/06/01 01:49:00;;;;;;;28.80;26.20;;;;;;;;;;5058052;28;20435;-85
2023/06/01 01:51:31;;;;;;;28.13;26.23;;;;;;;;;;5058378;28;20453;-84
2023/06/01 01:53:58;;;;;;;28.63;26.10;;;;;;;;;;5058332;28;20847;-85
2023/06/01 01:56:26;;;;;;;29.40;26.80;;;;;;;;;;5068658;28;20443;-83
2023/06/01 01:58:53;;;;;;;29.63;27.40;;;;;;;;;;5076545;28;20517;-82
2023/06/01 02:01:20;;;;;;;26.40;24.40;;;;;;;;;;5075361;28;20510;-83
2023/06/01 02:03:58;;;;;;;28.17;26.07;;;;;;;;;;5061302;28;20442;-86
2023/06/01 02:06:25;;;;;;;27.77;25.70;;;;;;;;;;5058495;28;20440;-85
2023/06/01 02:08:52;;;;;;;27.80;25.33;;;;;;;;;;5058643;28;20421;-85
2023/06/01 02:11:19;;;;;;;28.27;25.73;;;;;;;;;;5058878;28;20474;-85
2023/06/01 02:13:47;;;;;;;28.20;26.17;;;;;;;;;;5058502;28;20508;-85
2023/06/01 02:16:14;;;;;;;27.33;24.83;;;;;;;;;;5058311;28;20421;-85
2023/06/01 02:18:41;;;;;;;28.77;26.70;;;;;;;;;;5058467;28;20468;-84
2023/06/01 02:21:09;;;;;;;27.93;25.63;;;;;;;;;;5057274;28;20486;-86
2023/06/01 02:23:39;;;;;;;29.27;26.97;;;;;;;;;;5058354;28;20425;-85
2023/06/01 02:26:06;;;;;;;28.10;26.10;;;;;;;;;;5057542;28;20459;-85
2023/06/01 02:28:33;;;;;;;27.60;25.30;;;;;;;;;;5057710;28;20538;-85
2023/06/01 02:31:00;;;;;;;28.13;25.73;;;;;;;;;;5057458;28;20556;-85
2023/06/01 02:33:28;;;;;;;27.47;25.17;;;;;;;;;;5057625;28;20439;-84
2023/06/01 02:35:55;;;;;;;28.43;26.33;;;;;;;;;;5057748;28;20421;-84
2023/06/01 02:38:23;;;;;;;28.07;25.53;;;;;;;;;;5057679;28;20601;-85
2023/06/01 02:40:50;;;;;;;26.60;24.60;;;;;;;;;;5057088;28;20483;-85
2023/06/01 02:43:17;;;;;;;28.53;26.53;;;;;;;;;;5057881;28;20455;-85
2023/06/01 02:45:45;;;;;;;26.97;24.87;;;;;;;;;;5056750;28;20513;-84
2023/06/01 02:48:12;;;;;;;26.63;24.43;;;;;;;;;;5057264;28;20816;-85
2023/06/01 02:50:39;;;;;;;28.57;25.97;;;;;;;;;;5057458;28;20471;-84
2023/06/01 02:53:07;;;;;;;26.90;24.80;;;;;;;;;;5057138;28;20446;-84
2023/06/01 02:55:35;;;;;;;27.27;24.70;;;;;;;;;;5056782;28;20465;-84
2023/06/01 02:58:02;;;;;;;28.00;25.60;;;;;;;;;;5057091;28;20446;-84
2023/06/01 03:00:29;;;;;;;27.03;25.00;;;;;;;;;;5056282;28;20566;-85
2023/06/01 03:02:57;;;;;;;26.73;24.80;;;;;;;;;;5056621;28;20509;-85
2023/06/01 03:05:24;;;;;;;28.07;25.73;;;;;;;;;;5057404;28;20450;-84
2023/06/01 03:07:51;;;;;;;27.10;24.93;;;;;;;;;;5056603;28;20427;-84
2023/06/01 03:10:18;;;;;;;26.20;24.20;;;;;;;;;;5056062;28;20475;-84
2023/06/01 03:12:46;;;;;;;27.90;25.50;;;;;;;;;;5056219;28;20974;-84
2023/06/01 03:15:13;;;;;;;28.27;25.67;;;;;;;;;;5056545;28;20429;-85
2023/06/01 03:17:40;;;;;;;29.47;26.93;;;;;;;;;;5055762;28;20457;-84
2023/06/01 03:20:14;;;;;;;26.53;24.73;;;;;;;;;;5056616;28;20483;-84
2023/06/01 03:22:42;;;;;;;28.10;25.97;;;;;;;;;;5056703;28;20431;-84
2023/06/01 03:25:11;;;;;;;28.60;26.10;;;;;;;;;;5056317;28;20421;-85
2023/06/01 03:27:38;;;;;;;28.40;25.60;;;;;;;;;;5056134;28;20451;-84
2023/06/01 03:30:09;;;;;;;27.77;25.57;;;;;;;;;;5055260;28;20482;-84
2023/06/01 03:32:36;;;;;;;27.17;25.27;;;;;;;;;;5055923;28;20435;-79
2023/06/01 03:35:03;;;;;;;27.87;25.77;;;;;;;;;;5055316;28;20454;-79
2023/06/01 03:37:30;;;;;;;27.57;25.37;;;;;;;;;;5054730;28;20432;-79
2023/06/01 03:39:57;;;;;;;29.10;26.27;;;;;;;;;;5054993;28;20855;-77
2023/06/01 03:42:25;;;;;;;29.50;26.80;;;;;;;;;;5055184;28;20440;-79
2023/06/01 03:44:52;;;;;;;27.73;25.47;;;;;;;;;;5055196;28;20935;-79
2023/06/01 03:47:21;;;;;;;29.70;27.23;;;;;;;;;;5054853;28;20439;-79
2023/06/01 03:49:48;;;;;;;28.40;26.03;;;;;;;;;;5055021;28;21011;-79
2023/06/01 03:52:16;;;;;;;27.53;25.40;;;;;;;;;;5054513;28;20479;-80
2023/06/01 03:54:43;;;;;;;26.80;24.47;;;;;;;;;;5055047;28;20926;-79
2023/06/01 03:57:10;;;;;;;30.30;27.27;;;;;;;;;;5054680;28;20451;-80
2023/06/01 03:59:37;;;;;;;28.67;26.47;;;;;;;;;;5054503;28;20497;-77
2023/06/01 04:02:05;;;;;;;29.10;26.67;;;;;;;;;;5054165;28;20834;-79
2023/06/01 04:04:33;;;;;;;31.30;28.17;;;;;;;;;;5054193;28;20478;-79
2023/06/01 04:07:02;;;;;;;28.80;26.30;;;;;;;;;;5054247;28;20450;-80
2023/06/01 04:09:29;;;;;;;29.93;27.27;;;;;;;;;;5054522;28;20467;-79
2023/06/01 04:11:56;;;;;;;28.53;26.33;;;;;;;;;;5054441;28;20525;-79
2023/06/01 04:14:23;;;;;;;28.40;26.10;;;;;;;;;;5054320;28;20455;-79
2023/06/01 04:16:50;;;;;;;29.23;26.97;;;;;;;;;;5054191;28;20442;-80
2023/06/01 04:19:17;;;;;;;29.73;27.33;;;;;;;;;;5056295;28;20893;-80
2023/06/01 04:21:46;;;;;;;29.77;27.23;;;;;;;;;;5055402;28;20473;-80
2023/06/01 04:24:13;;;;;;;30.37;27.70;;;;;;;;;;5054792;28;20462;-79
2023/06/01 04:26:40;;;;;;;29.50;26.90;;;;;;;;;;5054106;28;20436;-79
2023/06/01 04:29:08;;;;;;;29.83;27.30;;;;;;;;;;5054648;28;20851;-80
2023/06/01 04:31:35;;;;;;;29.50;26.67;;;;;;;;;;5054214;28;20513;-80
2023/06/01 04:34:02;;;;;;;28.93;26.03;;;;;;;;;;5054413;28;20435;-79
2023/06/01 04:36:29;;;;;;;29.17;26.93;;;;;;;;;;5053866;28;20450;-79
2023/06/01 04:38:58;;;;;;;28.70;26.50;;;;;;;;;;5054414;28;20573;-79
2023/06/01 04:41:25;;;;;;;27.03;24.93;;;;;;;;;;5054168;28;20466;-79
2023/06/01 04:43:53;;;;;;;27.60;25.40;;;;;;;;;;5053648;28;20849;-78
2023/06/01 04:46:23;;;;;;;27.83;25.43;;;;;;;;;;5053684;28;20533;-80
2023/06/01 04:48:52;;;;;;;28.60;26.40;;;;;;;;;;5054234;28;20443;-79
2023/06/01 04:51:20;;;;;;;29.30;26.93;;;;;;;;;;5054419;28;20471;-79
2023/06/01 04:53:49;;;;;;;29.97;27.17;;;;;;;;;;5054733;28;21057;-80
2023/06/01 04:56:18;;;;;;;30.33;27.43;;;;;;;;;;5056679;28;20480;-80
2023/06/01 04:58:46;;;;;;;28.90;26.60;;;;;;;;;;5057670;28;20450;-80
2023/06/01 05:01:15;;;;;;;31.17;28.60;;;;;;;;;;5062287;28;20950;-80
2023/06/01 05:03:42;;;;;;;31.43;28.50;;;;;;;;;;5076097;28;20464;-80
2023/06/01 05:06:09;;;;;;;29.03;26.83;;;;;;;;;;5076067;28;20446;-79
2023/06/01 05:08:36;;;;;;;30.47;27.40;;;;;;;;;;5076670;28;20512;-79
2023/06/01 05:11:03;;;;;;;32.73;29.50;;;;;;;;;;5076130;28;20457;-80
2023/06/01 05:13:31;;;;;;;30.60;28.00;;;;;;;;;;5075984;28;20868;-81
2023/06/01 05:15:58;;;;;;;30.10;27.20;;;;;;;;;;5075867;28;20408;-80
2023/06/01 05:18:25;;;;;;;30.47;27.70;;;;;;;;;;5075872;28;20434;-80
2023/06/01 05:20:52;;;;;;;30.43;27.80;;;;;;;;;;5081768;28;20494;-79
2023/06/01 05:23:19;;;;;;;31.63;28.60;;;;;;;;;;5081020;28;20445;-80
2023/06/01 05:25:46;;;;;;;30.87;27.90;;;;;;;;;;5083883;28;20449;-80
2023/06/01 05:28:14;;;;;;;30.73;27.87;;;;;;;;;;5089412;28;20424;-79
2023/06/01 05:30:42;;;;;;;30.50;28.00;;;;;;;;;;5074567;28;20444;-80
2023/06/01 05:33:09;;;;;;;31.40;28.83;;;;;;;;;;5074590;28;20416;-79
2023/06/01 05:35:37;;;;;;;30.53;27.70;;;;;;;;;;5072678;28;20462;-80
2023/06/01 05:38:04;;;;;;;31.60;28.57;;;;;;;;;;5073845;28;20461;-80
2023/06/01 05:40:31;;;;;;;29.87;27.27;;;;;;;;;;5073140;28;20524;-80
2023/06/01 05:42:58;;;;;;;30.43;27.87;;;;;;;;;;5073020;28;20523;-80
2023/06/01 05:45:25;;;;;;;30.80;28.50;;;;;;;;;;5073232;28;20462;-80
2023/06/01 05:47:53;;;;;;;30.33;27.83;;;;;;;;;;5072539;28;20420;-79
2023/06/01 05:50:20;;;;;;;30.77;28.37;;;;;;;;;;5073118;28;20458;-80
2023/06/01 05:52:47;;;;;;;29.97;27.33;;;;;;;;;;5073778;28;20424;-79
2023/06/01 05:55:14;;;;;;;31.60;28.60;;;;;;;;;;5072264;28;20523;-79
2023/06/01 05:57:41;;;;;;;29.43;27.03;;;;;;;;;;5072190;28;20424;-79
2023/06/01 06:00:12;;;;;;;33.63;30.43;;;;;;;;;;5072364;28;20540;-80
2023/06/01 06:02:39;;;;;;;32.20;29.40;;;;;;;;;;5072799;28;20798;-79
2023/06/01 06:05:09;;;;;;;33.77;30.47;;;;;;;;;;5072022;28;20965;-80
2023/06/01 06:07:36;;;;;;;32.60;29.90;;;;;;;;;;5075649;28;20453;-80
2023/06/01 06:10:03;;;;;;;32.37;29.67;;;;;;;;;;5076289;28;20476;-80
2023/06/01 06:12:31;;;;;;;31.93;29.20;;;;;;;;;;5076088;28;20782;-80
2023/06/01 06:14:58;;;;;;;30.63;28.33;;;;;;;;;;5075379;28;20960;-79
2023/06/01 06:17:25;;;;;;;30.90;28.30;;;;;;;;;;5085207;28;20499;-80
2023/06/01 06:19:52;;;;;;;33.50;30.10;;;;;;;;;;5075942;28;20539;-80
2023/06/01 06:22:20;;;;;;;31.47;28.83;;;;;;;;;;5075980;28;20435;-80
2023/06/01 06:24:49;;;;;;;33.20;30.43;;;;;;;;;;5077180;28;20454;-79
2023/06/01 06:27:16;;;;;;;31.33;28.70;;;;;;;;;;5076660;28;20527;-80
2023/06/01 06:29:43;;;;;;;32.23;29.67;;;;;;;;;;5077310;28;20556;-79
2023/06/01 06:32:10;;;;;;;32.53;29.73;;;;;;;;;;5078913;28;20472;-79
2023/06/01 06:34:37;;;;;;;32.30;29.40;;;;;;;;;;5095066;28;20457;-80
2023/06/01 06:37:05;;;;;;;33.20;30.23;;;;;;;;;;5095894;28;20449;-78
2023/06/01 06:39:34;;;;;;;32.57;29.80;;;;;;;;;;5095403;28;20454;-79
2023/06/01 06:42:02;;;;;;;33.17;30.47;;;;;;;;;;5080173;28;20449;-79
2023/06/01 06:44:29;;;;;;;33.03;29.87;;;;;;;;;;5077392;28;20530;-78
2023/06/01 06:46:56;;;;;;;34.37;31.37;;;;;;;;;;5075514;28;20424;-79
2023/06/01 06:49:23;;;;;;;33.13;30.17;;;;;;;;;;5075068;28;20462;-78
2023/06/01 06:51:50;;;;;;;32.93;30.07;;;;;;;;;;5075879;28;20421;-79
2023/06/01 06:54:17;;;;;;;35.83;32.13;;;;;;;;;;5075997;28;20468;-79
2023/06/01 06:56:45;;;;;;;34.37;31.47;;;;;;;;;;5075306;28;20424;-79
2023/06/01 06:59:12;;;;;;;34.03;31.10;;;;;;;;;;5074943;28;20507;-79
2023/06/01 07:01:40;;;;;;;33.70;30.67;;;;;;;;;;5076110;28;20471;-79
2023/06/01 07:04:08;;;;;;;32.90;30.33;;;;;;;;;;5075913;28;20476;-78
2023/06/01 07:06:35;;;;;;;33.40;30.20;;;;;;;;;;5075774;28;20458;-80
2023/06/01 07:09:05;;;;;;;33.73;30.60;;;;;;;;;;5076853;28;20922;-78
2023/06/01 07:11:32;;;;;;;33.20;30.10;;;;;;;;;;5075644;28;20519;-79
2023/06/01 07:14:00;;;;;;;33.03;30.03;;;;;;;;;;5075265;28;20432;-78
2023/06/01 07:16:29;;;;;;;34.73;31.33;;;;;;;;;;5074798;28;20454;-79
2023/06/01 07:18:57;;;;;;;33.07;30.27;;;;;;;;;;5074727;28;20418;-79
2023/06/01 07:21:24;;;;;;;34.93;31.80;;;;;;;;;;5073280;28;20473;-79
2023/06/01 07:23:51;;;;;;;33.43;30.23;;;;;;;;;;5076088;28;20517;-79
2023/06/01 07:26:18;;;;;;;32.33;29.43;;;;;;;;;;5075182;28;20447;-79
2023/06/01 07:28:45;;;;;;;29.87;27.37;;;;;;;;;;5073290;28;20446;-79
2023/06/01 07:31:13;;;;;;;31.20;28.53;;;;;;;;;;5076131;28;20520;-79
2023/06/01 07:33:40;;;;;;;31.00;28.40;;;;;;;;;;5075401;28;20504;-80
2023/06/01 07:36:07;;;;;;;31.03;28.33;;;;;;;;;;5074265;28;20454;-80
2023/06/01 07:38:34;;;;;;;31.07;28.37;;;;;;;;;;5074728;28;20454;-79
2023/06/01 07:41:01;;;;;;;29.73;27.43;;;;;;;;;;5076694;28;21028;-79
2023/06/01 07:43:28;;;;;;;31.70;28.63;;;;;;;;;;5076111;28;20464;-79
2023/06/01 07:45:57;;;;;;;32.33;29.63;;;;;;;;;;5074588;28;20426;-79
2023/06/01 07:48:25;;;;;;;31.60;28.80;;;;;;;;;;5074622;28;20971;-79
2023/06/01 07:50:52;;;;;;;30.60;27.87;;;;;;;;;;5075144;28;20801;-79
2023/06/01 07:53:19;;;;;;;29.70;27.20;;;;;;;;;;5075384;28;20426;-79
2023/06/01 07:55:48;;;;;;;31.00;28.17;;;;;;;;;;5074643;28;20489;-82
2023/06/01 07:58:16;;;;;;;30.80;28.40;;;;;;;;;;5074780;28;20459;-79
2023/06/01 08:00:44;;;;;;;29.37;27.07;;;;;;;;;;5074858;28;20456;-79
2023/06/01 08:03:11;;;;;;;30.17;27.87;;;;;;;;;;5075133;28;20449;-79
2023/06/01 08:05:39;;;;;;;29.93;27.20;;;;;;;;;;5074554;28;20458;-79
2023/06/01 08:08:06;;;;;;;31.40;28.63;;;;;;;;;;5073671;28;20530;-79
2023/06/01 08:10:33;;;;;;;30.67;28.10;;;;;;;;;;5074504;28;20470;-80
2023/06/01 08:13:01;;;;;;;30.83;28.20;;;;;;;;;;5075019;28;20938;-79
2023/06/01 08:15:28;;;;;;;31.57;28.73;;;;;;;;;;5074558;28;21028;-79
2023/06/01 08:17:55;;;;;;;31.83;28.77;;;;;;;;;;5074398;28;20450;-79
2023/06/01 08:20:22;;;;;;;29.77;27.23;;;;;;;;;;5074277;28;20525;-80
2023/06/01 08:22:51;;;;;;;33.10;30.07;;;;;;;;;;5074116;28;20807;-79
2023/06/01 08:25:18;;;;;;;31.67;28.97;;;;;;;;;;5074821;28;20455;-79
2023/06/01 08:27:46;;;;;;;31.77;28.70;;;;;;;;;;5074906;28;20705;-79
2023/06/01 08:30:13;;;;;;;32.27;28.90;;;;;;;;;;5073613;28;20493;-80
2023/06/01 08:32:40;;;;;;;29.67;27.10;;;;;;;;;;5074874;28;20576;-79
2023/06/01 08:35:07;;;;;;;30.57;27.87;;;;;;;;;;5074576;28;20449;-79
2023/06/01 08:37:34;;;;;;;30.40;27.60;;;;;;;;;;5073198;28;20434;-79
2023/06/01 08:40:05;;;;;;;30.73;28.27;;;;;;;;;;5073543;28;20521;-80
2023/06/01 08:42:36;;;;;;;31.17;28.23;;;;;;;;;;5075533;28;20482;-83
2023/06/01 08:45:06;;;;;;;31.70;29.00;;;;;;;;;;5075905;28;20858;-83
2023/06/01 08:47:34;;;;;;;31.03;28.13;;;;;;;;;;5075183;28;20819;-78
2023/06/01 08:50:01;;;;;;;32.57;29.47;;;;;;;;;;5073150;28;20482;-78
2023/06/01 08:52:31;;;;;;;30.97;28.07;;;;;;;;;;5075522;28;20450;-79
2023/06/01 08:54:59;;;;;;;31.27;28.37;;;;;;;;;;5075832;28;20433;-79
2023/06/01 08:57:29;;;;;;;31.77;28.83;;;;;;;;;;5074807;28;20421;-79
2023/06/01 08:59:56;;;;;;;32.07;28.80;;;;;;;;;;5074910;28;20543;-78
2023/06/01 09:02:23;;;;;;;31.20;28.73;;;;;;;;;;5075651;28;20418;-79
2023/06/01 09:04:50;;;;;;;29.60;27.17;;;;;;;;;;5074594;28;20416;-78
2023/06/01 09:07:18;;;;;;;30.10;27.50;;;;;;;;;;5072520;28;20467;-78
2023/06/01 09:09:46;;;;;;;31.47;28.57;;;;;;;;;;5072836;28;20506;-77
2023/06/01 09:12:24;;;;;;;27.27;25.10;;;;;;;;;;5072485;28;20481;-76
2023/06/01 09:14:52;;;;;;;30.20;27.60;;;;;;;;;;5073390;28;20460;-77
2023/06/01 09:17:23;;;;;;;32.37;29.60;;;;;;;;;;5071493;28;20446;-77
2023/06/01 09:19:52;;;;;;;29.53;27.37;;;;;;;;;;5072687;28;20982;-77
2023/06/01 09:22:19;;;;;;;28.17;25.80;;;;;;;;;;5071273;28;20478;-77
2023/06/01 09:24:57;;;;;;;29.57;27.00;;;;;;;;;;5073132;28;20532;-78
2023/06/01 09:27:25;;;;;;;28.70;26.13;;;;;;;;;;5072694;28;20501;-77
2023/06/01 09:29:55;;;;;;;30.93;28.60;;;;;;;;;;5072935;28;20482;-78
2023/06/01 09:32:22;;;;;;;28.40;26.27;;;;;;;;;;5072711;28;20521;-77
2023/06/01 09:34:49;;;;;;;28.13;25.80;;;;;;;;;;5073260;28;20483;-77
2023/06/01 09:37:17;;;;;;;27.00;25.10;;;;;;;;;;5072380;28;20462;-77
2023/06/01 09:39:44;;;;;;;27.20;25.23;;;;;;;;;;5073489;28;20564;-78
2023/06/01 09:42:11;;;;;;;27.80;25.43;;;;;;;;;;5076659;28;20452;-79
2023/06/01 09:44:39;;;;;;;27.93;26.03;;;;;;;;;;5079149;28;20450;-81
2023/06/01 09:47:09;;;;;;;28.37;25.83;;;;;;;;;;5077031;28;20938;-82
2023/06/01 09:49:38;;;;;;;29.37;27.17;;;;;;;;;;5077964;28;20531;-82
2023/06/01 09:52:14;;;;;;;29.13;26.37;;;;;;;;;;5076364;28;20454;-77
2023/06/01 09:54:42;;;;;;;26.90;24.90;;;;;;;;;;5076064;28;20440;-80
2023/06/01 09:57:10;;;;;;;28.10;25.83;;;;;;;;;;5075893;28;20457;-82
2023/06/01 09:59:41;;;;;;;26.63;24.63;;;;;;;;;;5076307;28;20577;-82
2023/06/01 10:02:12;;;;;;;26.60;24.50;;;;;;;;;;5077352;28;20473;-82
2023/06/01 10:04:40;;;;;;;28.33;25.83;;;;;;;;;;5080572;28;20842;-81
2023/06/01 10:07:08;;;;;;;28.67;26.33;;;;;;;;;;5077424;28;20455;-81
2023/06/01 10:09:38;;;;;;;27.50;25.47;;;;;;;;;;5078407;28;20481;-81
2023/06/01 10:12:06;;;;;;;26.80;25.00;;;;;;;;;;5077789;28;20406;-82
2023/06/01 10:14:33;;;;;;;28.40;26.27;;;;;;;;;;5078571;28;20451;-82
2023/06/01 10:17:00;;;;;;;29.07;26.97;;;;;;;;;;5075709;28;20436;-76
2023/06/01 10:19:28;;;;;;;27.57;25.73;;;;;;;;;;5074993;28;20470;-76
2023/06/01 10:21:58;;;;;;;28.93;26.47;;;;;;;;;;5075657;28;20444;-76
2023/06/01 10:24:25;;;;;;;28.30;26.10;;;;;;;;;;5075044;28;20981;-76
2023/06/01 10:26:56;;;;;;;28.27;26.07;;;;;;;;;;5074662;28;20450;-76
2023/06/01 10:29:25;;;;;;;28.40;26.00;;;;;;;;;;5075188;28;20525;-75
2023/06/01 10:31:52;;;;;;;27.13;24.97;;;;;;;;;;5074719;28;21014;-76
2023/06/01 10:34:37;;;;;;;27.00;25.07;;;;;;;;;;5075250;28;20459;-76
2023/06/01 10:37:16;;;;;;;27.47;25.33;;;;;;;;;;5074776;28;20437;-76
2023/06/01 10:39:43;;;;;;;28.73;26.40;;;;;;;;;;5075018;28;20496;-76
2023/06/01 10:42:28;;;;;;;26.97;24.97;;;;;;;;;;5074386;28;20466;-75
2023/06/01 10:44:55;;;;;;;27.57;25.57;;;;;;;;;;5074830;28;20816;-75
2023/06/01 10:47:43;;;;;;;27.10;25.03;;;;;;;;;;5074608;28;20436;-75
2023/06/01 10:50:11;;;;;;;28.37;26.27;;;;;;;;;;5074292;28;20441;-75
2023/06/01 10:52:40;;;;;;;26.43;24.63;;;;;;;;;;5073350;28;20794;-75
2023/06/01 10:55:23;;;;;;;26.40;24.30;;;;;;;;;;5074859;28;20456;-75
2023/06/01 10:57:51;;;;;;;26.63;24.83;;;;;;;;;;5074027;28;20454;-74
2023/06/01 11:00:20;;;;;;;26.60;24.70;;;;;;;;;;5074624;28;20476;-75
2023/06/01 11:02:51;;;;;;;26.23;24.40;;;;;;;;;;5074045;28;20523;-75
2023/06/01 11:05:37;;;;;;;24.53;22.83;;;;;;;;;;5074644;28;20796;-75
2023/06/01 11:08:05;;;;;;;25.77;24.07;;;;;;;;;;5074526;28;20449;-75
2023/06/01 11:10:51;;;;;;;24.70;23.03;;;;;;;;;;5074688;28;20463;-74
2023/06/01 11:13:19;;;;;;;26.37;24.60;;;;;;;;;;5074130;28;20471;-75
2023/06/01 11:16:01;;;;;;;26.83;24.83;;;;;;;;;;5074225;28;20454;-75
2023/06/01 11:18:44;;;;;;;27.50;25.27;;;;;;;;;;5073631;28;20513;-74
2023/06/01 11:21:12;;;;;;;27.13;25.33;;;;;;;;;;5074320;28;20572;-74
2023/06/01 11:23:42;;;;;;;27.83;25.60;;;;;;;;;;5073654;28;20474;-76
2023/06/01 11:26:09;;;;;;;26.90;24.70;;;;;;;;;;5073587;28;20456;-76
2023/06/01 11:28:36;;;;;;;28.83;26.43;;;;;;;;;;5074383;28;20452;-77
2023/06/01 11:31:04;;;;;;;27.50;25.60;;;;;;;;;;5076538;28;20544;-74
2023/06/01 11:33:33;;;;;;;27.57;25.60;;;;;;;;;;5074458;28;20453;-77
2023/06/01 11:36:00;;;;;;;27.30;25.40;;;;;;;;;;5073583;28;20455;-76
2023/06/01 11:38:33;;;;;;;28.30;26.23;;;;;;;;;;5074037;28;21106;-75
2023/06/01 11:41:02;;;;;;;26.13;24.10;;;;;;;;;;5073181;28;20487;-80
2023/06/01 11:43:29;;;;;;;27.27;25.27;;;;;;;;;;5077264;28;20499;-81
2023/06/01 11:46:02;;;;;;;26.00;24.00;;;;;;;;;;5077809;28;20448;-82
2023/06/01 11:48:29;;;;;;;26.57;24.77;;;;;;;;;;5077356;28;20511;-81
2023/06/01 11:50:56;;;;;;;26.63;24.87;;;;;;;;;;5075190;28;20442;-79
2023/06/01 11:53:23;;;;;;;27.57;25.77;;;;;;;;;;5074523;28;20457;-76
2023/06/01 11:55:50;;;;;;;26.90;25.17;;;;;;;;;;5072987;28;20482;-75
2023/06/01 11:58:23;;;;;;;26.83;24.83;;;;;;;;;;5074383;28;20449;-76
2023/06/01 12:00:50;;;;;;;26.17;24.60;;;;;;;;;;5078451;28;21006;-82
2023/06/01 12:03:17;;;;;;;27.63;25.70;;;;;;;;;;5082060;28;20670;-83
2023/06/01 12:05:45;;;;;;;25.73;23.77;;;;;;;;;;5081004;28;20529;-82
2023/06/01 12:08:14;;;;;;;26.80;24.90;;;;;;;;;;5079443;28;20810;-80
2023/06/01 12:10:43;;;;;;;25.50;23.60;;;;;;;;;;5076358;28;20470;-74
2023/06/01 12:13:10;;;;;;;25.47;23.57;;;;;;;;;;5073387;28;20833;-75
2023/06/01 12:15:39;;;;;;;26.53;24.83;;;;;;;;;;5072534;28;20465;-75
2023/06/01 12:18:06;;;;;;;27.37;25.50;;;;;;;;;;5073384;28;20444;-75
2023/06/01 12:20:35;;;;;;;26.47;24.70;;;;;;;;;;5072514;28;20496;-75
2023/06/01 12:23:03;;;;;;;25.80;23.87;;;;;;;;;;5073172;28;20482;-75
2023/06/01 12:25:31;;;;;;;26.10;24.40;;;;;;;;;;5072932;28;20533;-75
2023/06/01 12:28:02;;;;;;;26.50;24.70;;;;;;;;;;5073163;28;20451;-75
2023/06/01 12:30:29;;;;;;;24.60;23.10;;;;;;;;;;5072842;28;20865;-76
2023/06/01 12:32:58;;;;;;;24.90;23.33;;;;;;;;;;5072860;28;20451;-75
2023/06/01 12:35:25;;;;;;;24.87;23.37;;;;;;;;;;5072612;28;20853;-75
2023/06/01 12:38:04;;;;;;;25.30;23.57;;;;;;;;;;5072062;28;20533;-77
2023/06/01 12:40:31;;;;;;;25.17;23.40;;;;;;;;;;5072910;28;20476;-75
2023/06/01 12:42:58;;;;;;;25.33;23.73;;;;;;;;;;5072784;28;20984;-76
2023/06/01 12:45:25;;;;;;;27.50;25.60;;;;;;;;;;5073952;28;20451;-76
2023/06/01 12:47:52;;;;;;;26.27;24.50;;;;;;;;;;5072592;28;20456;-76
2023/06/01 12:50:21;;;;;;;26.33;24.53;;;;;;;;;;5072189;28;20986;-82
2023/06/01 12:52:48;;;;;;;26.67;24.80;;;;;;;;;;5074490;28;20478;-79
2023/06/01 12:55:15;;;;;;;25.90;24.30;;;;;;;;;;5077262;28;20451;-81
2023/06/01 12:57:43;;;;;;;24.67;23.07;;;;;;;;;;5072595;28;20446;-74
2023/06/01 13:00:11;;;;;;;27.00;25.20;;;;;;;;;;5072137;28;20471;-76
2023/06/01 13:02:39;;;;;;;25.40;23.80;;;;;;;;;;5072963;28;20506;-76
2023/06/01 13:05:07;;;;;;;25.77;24.13;;;;;;;;;;5073312;28;20498;-77
2023/06/01 13:07:36;;;;;;;25.00;23.30;;;;;;;;;;5072257;28;20518;-76
2023/06/01 13:10:03;;;;;;;26.63;24.87;;;;;;;;;;5069885;28;20458;-75
2023/06/01 13:12:31;;;;;;;25.73;24.03;;;;;;;;;;5072096;28;20990;-75
2023/06/01 13:14:58;;;;;;;25.30;23.40;;;;;;;;;;5072110;28;20548;-75
2023/06/01 13:17:26;;;;;;;25.77;23.90;;;;;;;;;;5076090;28;20415;-76
2023/06/01 13:19:53;;;;;;;25.87;24.13;;;;;;;;;;5076058;28;20469;-76
2023/06/01 13:22:20;;;;;;;26.63;24.67;;;;;;;;;;5077320;28;20491;-75
2023/06/01 13:24:49;;;;;;;26.43;24.73;;;;;;;;;;5076866;28;20452;-76
2023/06/01 13:27:16;;;;;;;26.03;24.43;;;;;;;;;;5075428;28;20933;-75
2023/06/01 13:29:43;;;;;;;24.90;23.20;;;;;;;;;;5076362;28;20450;-75
2023/06/01 13:32:10;;;;;;;26.80;25.00;;;;;;;;;;5076749;28;20428;-75
2023/06/01 13:34:37;;;;;;;24.63;23.10;;;;;;;;;;5076547;28;20431;-75
2023/06/01 13:37:04;;;;;;;25.03;23.37;;;;;;;;;;5076044;28;20477;-75
2023/06/01 13:39:31;;;;;;;24.33;22.73;;;;;;;;;;5075444;28;20507;-76
2023/06/01 13:42:00;;;;;;;24.70;23.00;;;;;;;;;;5076487;28;20462;-74
2023/06/01 13:44:28;;;;;;;25.30;23.70;;;;;;;;;;5076421;28;20772;-74
2023/06/01 13:46:55;;;;;;;26.37;24.60;;;;;;;;;;5075526;28;20461;-74
2023/06/01 13:49:22;;;;;;;25.63;24.00;;;;;;;;;;5074909;28;20477;-74
2023/06/01 13:51:49;;;;;;;25.40;23.80;;;;;;;;;;5076405;28;20425;-79
2023/06/01 13:54:16;;;;;;;24.60;23.10;;;;;;;;;;5076981;28;20455;-83
2023/06/01 13:56:43;;;;;;;25.10;23.40;;;;;;;;;;5077679;28;20450;-83
2023/06/01 13:59:12;;;;;;;24.10;22.70;;;;;;;;;;5078706;28;20433;-82
2023/06/01 14:01:39;;;;;;;24.37;22.97;;;;;;;;;;5078416;28;20497;-82
2023/06/01 14:04:06;;;;;;;25.40;23.70;;;;;;;;;;5082423;28;20441;-87
2023/06/01 14:06:34;;;;;;;24.00;22.30;;;;;;;;;;5081600;28;20515;-81
2023/06/01 14:09:01;;;;;;;24.03;22.53;;;;;;;;;;5077267;28;20456;-81
2023/06/01 14:11:28;;;;;;;24.03;22.63;;;;;;;;;;5078257;28;20464;-84
2023/06/01 14:13:55;;;;;;;23.73;22.43;;;;;;;;;;5079675;28;20427;-82
2023/06/01 14:16:23;;;;;;;24.70;23.20;;;;;;;;;;5077839;28;20450;-78
2023/06/01 14:18:50;;;;;;;25.10;23.50;;;;;;;;;;5079295;28;20442;-84
2023/06/01 14:21:17;;;;;;;24.60;23.30;;;;;;;;;;5077869;28;20464;-80
2023/06/01 14:23:45;;;;;;;24.00;22.70;;;;;;;;;;5078416;28;20539;-81